createdAt,value
2019-04-30T00:01:43.610Z,9.80
2019-04-30T00:04:15.771Z,9.90
2019-04-30T00:06:45.284Z,9.90
2019-04-30T00:09:19.089Z,10.10
2019-04-30T00:11:46.045Z,9.80
2019-04-30T00:14:15.234Z,9.80
2019-04-30T00:16:45.049Z,9.80
2019-04-30T00:19:15.839Z,9.80
2019-04-30T00:21:42.673Z,9.80
2019-04-30T00:24:10.959Z,9.90
2019-04-30T00:26:39.928Z,9.80
2019-04-30T00:29:08.377Z,9.80
2019-04-30T00:31:36.142Z,9.80
2019-04-30T00:34:05.062Z,9.90
2019-04-30T00:36:34.191Z,9.90
2019-04-30T00:39:07.124Z,9.90
2019-04-30T00:41:35.238Z,9.80
2019-04-30T00:44:05.411Z,9.80
2019-04-30T00:46:36.246Z,9.80
2019-04-30T00:49:11.276Z,9.80
2019-04-30T00:51:35.327Z,9.80
2019-04-30T00:54:02.855Z,9.80
2019-04-30T00:56:30.688Z,9.70
2019-04-30T00:59:02.425Z,9.70
2019-04-30T01:01:48.138Z,9.70
2019-04-30T01:04:24.569Z,9.60
2019-04-30T01:06:52.326Z,9.60
2019-04-30T01:09:20.082Z,9.60
2019-04-30T01:11:48.191Z,9.60
2019-04-30T01:14:16.143Z,9.50
2019-04-30T01:16:43.865Z,9.40
2019-04-30T01:19:26.612Z,9.40
2019-04-30T01:21:47.048Z,9.30
2019-04-30T01:24:10.937Z,9.20
2019-04-30T01:26:39.342Z,9.20
2019-04-30T01:29:07.130Z,9.20
2019-04-30T01:31:37.501Z,9.20
2019-04-30T01:34:05.253Z,9.10
2019-04-30T01:36:34.197Z,9.10
2019-04-30T01:39:01.987Z,9.00
2019-04-30T01:41:31.448Z,8.90
2019-04-30T01:43:59.254Z,8.90
2019-04-30T01:46:29.085Z,8.80
2019-04-30T01:48:56.670Z,8.80
2019-04-30T01:51:24.412Z,8.80
2019-04-30T01:53:52.487Z,8.80
2019-04-30T01:56:33.836Z,8.70
2019-04-30T01:59:07.007Z,8.70
2019-04-30T02:01:35.661Z,8.70
2019-04-30T02:04:03.440Z,8.60
2019-04-30T02:06:31.172Z,8.60
2019-04-30T02:08:59.341Z,8.50
2019-04-30T02:11:28.748Z,8.50
2019-04-30T02:13:56.903Z,8.60
2019-04-30T02:16:24.692Z,8.70
2019-04-30T02:18:52.720Z,8.80
2019-04-30T02:21:20.509Z,8.90
2019-04-30T02:23:49.299Z,9.00
2019-04-30T02:26:18.751Z,9.00
2019-04-30T02:28:46.658Z,9.10
2019-04-30T02:31:14.466Z,9.10
2019-04-30T02:33:44.696Z,9.20
2019-04-30T02:36:32.071Z,9.20
2019-04-30T02:39:02.629Z,9.20
2019-04-30T02:41:30.812Z,9.20
2019-04-30T02:43:59.908Z,9.10
2019-04-30T02:46:29.208Z,9.00
2019-04-30T02:48:59.921Z,8.90
2019-04-30T02:51:31.193Z,8.80
2019-04-30T02:54:29.671Z,8.70
2019-04-30T02:57:11.280Z,8.70
2019-04-30T02:59:59.969Z,8.50
2019-04-30T03:02:29.132Z,8.40
2019-04-30T03:05:00.240Z,8.30
2019-04-30T03:07:29.537Z,8.70
2019-04-30T03:09:59.735Z,8.10
2019-04-30T03:12:30.501Z,8.10
2019-04-30T03:15:00.268Z,8.00
2019-04-30T03:17:40.142Z,8.00
2019-04-30T03:20:30.999Z,8.00
2019-04-30T03:22:59.416Z,8.00
2019-04-30T03:25:29.668Z,7.90
2019-04-30T03:28:16.045Z,7.80
2019-04-30T03:30:43.797Z,8.20
2019-04-30T03:33:13.112Z,7.70
2019-04-30T03:35:46.581Z,7.70
2019-04-30T03:38:10.823Z,7.60
2019-04-30T03:40:40.505Z,7.60
2019-04-30T03:43:10.375Z,7.60
2019-04-30T03:45:40.121Z,7.50
2019-04-30T03:48:10.088Z,7.50
2019-04-30T03:50:50.410Z,7.50
2019-04-30T03:53:06.811Z,7.40
2019-04-30T03:55:34.569Z,7.40
2019-04-30T03:58:02.323Z,7.50
2019-04-30T04:00:52.438Z,7.50
2019-04-30T04:03:20.465Z,7.40
2019-04-30T04:06:09.430Z,7.40
2019-04-30T04:08:45.463Z,7.30
2019-04-30T04:11:25.935Z,7.20
2019-04-30T04:13:53.910Z,7.40
2019-04-30T04:16:21.660Z,7.10
2019-04-30T04:18:50.255Z,7.10
2019-04-30T04:21:20.698Z,7.10
2019-04-30T04:23:49.327Z,7.10
2019-04-30T04:26:20.239Z,7.00
2019-04-30T04:28:49.677Z,7.10
2019-04-30T04:31:19.277Z,7.10
2019-04-30T04:33:52.301Z,7.10
2019-04-30T04:36:17.048Z,7.10
2019-04-30T04:38:50.406Z,7.20
2019-04-30T04:41:19.575Z,7.20
2019-04-30T04:43:46.657Z,7.00
2019-04-30T04:46:14.375Z,7.30
2019-04-30T04:48:42.162Z,7.50
2019-04-30T04:51:27.176Z,7.70
2019-04-30T04:53:40.322Z,7.70
2019-04-30T04:56:10.120Z,7.90
2019-04-30T04:58:40.196Z,7.90
2019-04-30T05:01:09.063Z,7.90
2019-04-30T05:03:39.914Z,8.10
2019-04-30T05:06:11.495Z,8.30
2019-04-30T05:08:39.531Z,8.30
2019-04-30T05:11:09.452Z,8.50
2019-04-30T05:13:38.900Z,8.60
2019-04-30T05:16:06.805Z,9.10
2019-04-30T05:18:34.588Z,10.30
2019-04-30T05:21:02.359Z,11.40
2019-04-30T05:23:32.362Z,12.20
2019-04-30T05:26:00.120Z,12.90
2019-04-30T05:28:29.930Z,13.50
2019-04-30T05:30:59.309Z,14.00
2019-04-30T05:33:28.572Z,14.20
2019-04-30T05:35:56.485Z,15.10
2019-04-30T05:38:24.266Z,15.10
2019-04-30T05:40:52.065Z,15.80
2019-04-30T05:43:20.086Z,16.10
2019-04-30T05:45:49.176Z,15.40
2019-04-30T05:48:18.598Z,15.50
2019-04-30T05:50:46.465Z,16.70
2019-04-30T05:53:14.204Z,16.70
2019-04-30T05:55:43.744Z,17.40
2019-04-30T05:58:11.542Z,17.30
2019-04-30T06:00:40.037Z,18.30
2019-04-30T06:03:09.448Z,17.60
2019-04-30T06:05:39.310Z,19.00
2019-04-30T06:08:09.148Z,19.70
2019-04-30T06:10:54.428Z,20.50
2019-04-30T06:13:41.441Z,20.40
2019-04-30T06:16:12.417Z,19.20
2019-04-30T06:18:42.293Z,19.30
2019-04-30T06:21:11.809Z,20.40
2019-04-30T06:23:40.829Z,20.60
2019-04-30T06:26:10.664Z,21.00
2019-04-30T06:28:39.011Z,21.80
2019-04-30T06:31:09.142Z,21.80
2019-04-30T06:33:38.847Z,22.00
2019-04-30T06:36:08.529Z,22.80
2019-04-30T06:38:38.718Z,21.90
2019-04-30T06:41:06.530Z,22.30
2019-04-30T06:43:34.965Z,22.90
2019-04-30T06:46:03.538Z,23.30
2019-04-30T06:48:33.368Z,23.10
2019-04-30T06:51:01.148Z,23.70
2019-04-30T06:53:29.785Z,23.70
2019-04-30T06:55:59.005Z,23.10
2019-04-30T06:58:26.876Z,22.60
2019-04-30T07:00:56.454Z,23.30
2019-04-30T07:03:29.774Z,23.50
2019-04-30T07:05:58.614Z,23.30
2019-04-30T07:08:54.850Z,23.60
2019-04-30T07:11:26.431Z,24.30
2019-04-30T07:14:00.039Z,25.00
2019-04-30T07:16:29.846Z,25.60
2019-04-30T07:18:58.605Z,24.90
2019-04-30T07:21:26.939Z,25.20
2019-04-30T07:23:55.780Z,25.10
2019-04-30T07:26:24.756Z,25.30
2019-04-30T07:31:22.924Z,25.40
2019-04-30T07:33:53.743Z,25.20
2019-04-30T07:36:20.419Z,25.90
2019-04-30T07:38:54.390Z,26.40
2019-04-30T07:41:18.997Z,26.20
2019-04-30T07:43:49.202Z,25.20
2019-04-30T07:46:16.508Z,26.30
2019-04-30T07:48:44.588Z,26.40
2019-04-30T07:51:12.800Z,26.30
2019-04-30T07:53:40.942Z,26.20
2019-04-30T07:56:24.283Z,27.00
2019-04-30T07:58:39.080Z,27.30
2019-04-30T08:01:10.016Z,28.40
2019-04-30T08:03:58.970Z,28.10
2019-04-30T08:06:27.339Z,25.80
2019-04-30T08:08:58.333Z,26.10
2019-04-30T08:09:34.156Z,25.60
2019-04-30T08:11:26.499Z,26.80
2019-04-30T08:13:54.714Z,26.60
2019-04-30T08:16:22.517Z,27.10
2019-04-30T08:18:50.304Z,27.00
2019-04-30T08:21:19.040Z,27.30
2019-04-30T08:24:06.724Z,27.30
2019-04-30T08:26:36.866Z,27.10
2019-04-30T08:29:04.658Z,26.90
2019-04-30T08:31:44.967Z,27.80
2019-04-30T08:34:12.741Z,27.20
2019-04-30T08:36:40.567Z,28.80
2019-04-30T08:39:09.671Z,28.30
2019-04-30T08:41:39.245Z,28.80
2019-04-30T08:44:07.178Z,27.70
2019-04-30T08:46:35.297Z,27.40
2019-04-30T08:49:03.273Z,28.50
2019-04-30T08:51:31.714Z,29.00
2019-04-30T08:54:00.614Z,29.00
2019-04-30T08:56:29.565Z,27.20
2019-04-30T08:58:59.272Z,28.00
2019-04-30T09:01:29.410Z,28.20
2019-04-30T09:03:57.211Z,27.40
2019-04-30T09:06:29.126Z,27.90
2019-04-30T09:09:19.298Z,27.10
2019-04-30T09:11:53.040Z,27.40
2019-04-30T09:14:18.662Z,26.90
2019-04-30T09:16:46.762Z,27.80
2019-04-30T09:19:14.629Z,26.90
2019-04-30T09:21:42.440Z,27.30
2019-04-30T09:24:10.244Z,28.20
2019-04-30T09:26:40.179Z,29.00
2019-04-30T09:29:09.321Z,29.00
2019-04-30T09:31:40.834Z,27.80
2019-04-30T09:34:15.175Z,28.10
2019-04-30T09:36:36.734Z,28.50
2019-04-30T09:39:08.783Z,27.40
2019-04-30T09:41:41.013Z,27.00
2019-04-30T09:44:07.131Z,26.60
2019-04-30T09:46:35.007Z,26.90
2019-04-30T09:49:02.960Z,27.70
2019-04-30T09:51:32.143Z,27.90
2019-04-30T09:54:03.180Z,28.30
2019-04-30T09:56:29.857Z,28.90
2019-04-30T09:58:59.293Z,29.00
2019-04-30T10:01:27.249Z,29.80
2019-04-30T10:03:55.683Z,29.60
2019-04-30T10:06:36.315Z,29.60
2019-04-30T10:08:56.184Z,29.50
2019-04-30T10:11:50.088Z,29.90
2019-04-30T10:14:18.349Z,30.20
2019-04-30T10:17:09.537Z,30.50
2019-04-30T10:19:39.243Z,31.30
2019-04-30T10:22:08.936Z,29.80
2019-04-30T10:24:36.818Z,29.20
2019-04-30T10:27:07.170Z,29.20
2019-04-30T10:29:34.192Z,29.80
2019-04-30T10:32:01.998Z,29.20
2019-04-30T10:34:29.786Z,29.30
2019-04-30T10:36:59.272Z,30.10
2019-04-30T10:39:29.683Z,30.20
2019-04-30T10:41:57.670Z,31.00
2019-04-30T10:44:25.556Z,30.20
2019-04-30T10:46:55.347Z,30.10
2019-04-30T10:49:23.116Z,29.90
2019-04-30T10:51:50.858Z,30.60
2019-04-30T10:54:26.036Z,29.00
2019-04-30T10:56:51.115Z,29.00
2019-04-30T10:59:17.930Z,29.00
2019-04-30T11:01:45.734Z,28.20
2019-04-30T11:04:15.852Z,28.40
2019-04-30T11:06:43.595Z,28.30
2019-04-30T11:09:11.465Z,27.10
2019-04-30T11:11:39.763Z,27.10
2019-04-30T11:14:07.619Z,26.80
2019-04-30T11:16:35.531Z,27.20
2019-04-30T11:19:03.495Z,26.90
2019-04-30T11:21:31.662Z,26.70
2019-04-30T11:23:59.856Z,26.80
2019-04-30T11:26:30.946Z,26.90
2019-04-30T11:28:57.920Z,26.70
2019-04-30T11:31:44.788Z,25.90
2019-04-30T11:34:12.881Z,26.40
2019-04-30T11:36:40.675Z,26.20
2019-04-30T11:39:15.721Z,26.90
2019-04-30T11:41:43.523Z,26.50
2019-04-30T11:44:11.367Z,27.20
2019-04-30T11:47:28.891Z,26.50
2019-04-30T11:49:56.642Z,27.30
2019-04-30T11:52:24.865Z,28.00
2019-04-30T11:54:54.559Z,29.20
2019-04-30T11:57:22.452Z,29.10
2019-04-30T11:59:53.732Z,29.40
2019-04-30T12:02:29.409Z,28.90
2019-04-30T12:04:57.496Z,28.80
2019-04-30T12:07:43.456Z,28.90
2019-04-30T12:10:40.283Z,28.80
2019-04-30T12:13:25.213Z,28.90
2019-04-30T12:15:54.110Z,29.10
2019-04-30T12:18:21.854Z,28.90
2019-04-30T12:20:49.659Z,29.10
2019-04-30T12:23:18.985Z,29.40
2019-04-30T12:25:49.172Z,29.00
2019-04-30T12:28:16.489Z,29.20
2019-04-30T12:30:44.222Z,29.30
2019-04-30T12:33:13.844Z,29.20
2019-04-30T12:35:41.644Z,27.20
2019-04-30T12:38:09.866Z,28.60
2019-04-30T12:40:38.973Z,29.50
2019-04-30T12:43:06.807Z,28.50
2019-04-30T12:45:34.560Z,29.20
2019-04-30T12:48:08.621Z,29.60
2019-04-30T12:50:45.403Z,29.20
2019-04-30T12:53:27.722Z,28.60
2019-04-30T12:56:27.073Z,29.30
2019-04-30T12:58:53.747Z,30.30
2019-04-30T13:01:22.063Z,28.90
2019-04-30T13:03:58.351Z,28.40
2019-04-30T13:06:26.951Z,29.00
2019-04-30T13:08:56.458Z,28.70
2019-04-30T13:11:25.532Z,29.00
2019-04-30T13:14:00.091Z,28.20
2019-04-30T13:16:29.317Z,27.60
2019-04-30T13:18:57.065Z,27.90
2019-04-30T13:21:25.919Z,28.30
2019-04-30T13:23:54.076Z,28.00
2019-04-30T13:26:21.890Z,27.90
2019-04-30T13:29:09.244Z,28.20
2019-04-30T13:31:52.362Z,28.30
2019-04-30T13:34:47.032Z,29.10
2019-04-30T13:37:14.827Z,28.80
2019-04-30T13:39:53.164Z,28.70
2019-04-30T13:42:29.236Z,28.60
2019-04-30T13:44:56.988Z,28.70
2019-04-30T13:47:24.808Z,28.40
2019-04-30T13:49:52.647Z,28.00
2019-04-30T13:52:20.424Z,27.90
2019-04-30T13:54:48.278Z,27.00
2019-04-30T13:57:16.085Z,27.30
2019-04-30T13:59:44.296Z,27.80
2019-04-30T14:02:12.492Z,28.30
2019-04-30T14:05:05.988Z,27.30
2019-04-30T14:08:10.481Z,27.10
2019-04-30T14:10:42.361Z,26.70
2019-04-30T14:13:11.659Z,27.10
2019-04-30T14:15:39.742Z,27.30
2019-04-30T14:18:09.333Z,27.30
2019-04-30T14:20:37.201Z,27.30
2019-04-30T14:23:05.243Z,26.90
2019-04-30T14:25:33.110Z,26.60
2019-04-30T14:28:00.895Z,26.00
2019-04-30T14:30:29.280Z,25.90
2019-04-30T14:32:59.199Z,25.20
2019-04-30T14:35:28.696Z,25.60
2019-04-30T14:37:56.671Z,25.70
2019-04-30T14:40:29.986Z,25.60
2019-04-30T14:43:05.995Z,25.90
2019-04-30T14:45:45.884Z,26.20
2019-04-30T14:48:24.751Z,25.60
2019-04-30T14:50:53.162Z,25.60
2019-04-30T14:53:39.658Z,25.60
2019-04-30T14:56:13.119Z,25.60
2019-04-30T14:58:51.526Z,25.70
2019-04-30T15:01:34.963Z,25.40
2019-04-30T15:04:03.579Z,25.30
2019-04-30T15:06:31.353Z,25.50
2019-04-30T15:08:59.195Z,25.10
2019-04-30T15:11:28.844Z,24.90
2019-04-30T15:13:59.079Z,24.00
2019-04-30T15:16:26.771Z,24.00
2019-04-30T15:18:54.545Z,22.90
2019-04-30T15:21:22.389Z,23.60
2019-04-30T15:24:14.087Z,23.90
2019-04-30T15:26:41.860Z,24.00
2019-04-30T15:29:13.390Z,23.90
2019-04-30T15:31:44.546Z,23.70
2019-04-30T15:34:13.721Z,23.60
2019-04-30T15:36:41.469Z,23.20
2019-04-30T15:39:35.425Z,23.10
2019-04-30T15:42:14.075Z,23.50
2019-04-30T15:44:45.201Z,22.90
2019-04-30T15:47:12.243Z,22.90
2019-04-30T15:49:41.653Z,22.60
2019-04-30T15:52:11.040Z,21.90
2019-04-30T15:54:39.267Z,21.30
2019-04-30T15:57:08.965Z,20.90
2019-04-30T15:59:43.705Z,20.60
2019-04-30T16:02:57.539Z,20.50
2019-04-30T16:05:41.668Z,20.30
2019-04-30T16:08:38.994Z,20.20
2019-04-30T16:11:33.401Z,20.20
2019-04-30T16:14:09.540Z,19.90
2019-04-30T16:16:39.580Z,19.50
2019-04-30T16:19:09.106Z,19.40
2019-04-30T16:21:37.030Z,19.20
2019-04-30T16:24:04.797Z,18.90
2019-04-30T16:26:32.606Z,18.80
2019-04-30T16:29:01.101Z,18.60
2019-04-30T16:31:29.234Z,18.60
2019-04-30T16:33:57.132Z,18.60
2019-04-30T16:36:25.260Z,18.50
2019-04-30T16:38:53.011Z,18.30
2019-04-30T16:41:31.039Z,18.30
2019-04-30T16:43:51.420Z,18.20
2019-04-30T16:46:21.922Z,18.00
2019-04-30T16:48:49.904Z,18.00
2019-04-30T16:51:18.779Z,18.00
2019-04-30T16:53:48.622Z,17.90
2019-04-30T16:56:18.470Z,18.00
2019-04-30T16:58:58.164Z,17.90
2019-04-30T17:01:26.092Z,18.00
2019-04-30T17:04:09.079Z,18.00
2019-04-30T17:06:39.781Z,17.90
2019-04-30T17:09:17.427Z,17.80
2019-04-30T17:12:03.445Z,17.80
2019-04-30T17:14:32.407Z,17.80
2019-04-30T17:17:00.158Z,17.70
2019-04-30T17:19:29.229Z,17.60
2019-04-30T17:21:57.677Z,17.60
2019-04-30T17:24:25.462Z,17.50
2019-04-30T17:26:53.551Z,17.60
2019-04-30T17:29:21.403Z,17.50
2019-04-30T17:31:49.285Z,17.50
2019-04-30T17:34:17.110Z,17.60
2019-04-30T17:36:44.924Z,17.60
2019-04-30T17:39:14.746Z,17.60
2019-04-30T17:41:42.733Z,17.60
2019-04-30T17:44:10.560Z,17.50
2019-04-30T17:46:38.575Z,17.40
2019-04-30T17:49:06.458Z,17.40
2019-04-30T17:51:34.231Z,17.40
2019-04-30T17:54:28.505Z,17.10
2019-04-30T17:56:56.292Z,17.40
2019-04-30T17:59:24.452Z,17.30
2019-04-30T18:01:59.611Z,17.10
2019-04-30T18:04:29.673Z,17.10
2019-04-30T18:06:59.104Z,16.90
2019-04-30T18:09:29.160Z,16.70
2019-04-30T18:11:57.201Z,16.60
2019-04-30T18:14:25.036Z,16.50
2019-04-30T18:16:52.844Z,16.40
2019-04-30T18:19:28.648Z,16.20
2019-04-30T18:22:03.732Z,16.10
2019-04-30T18:24:39.377Z,15.90
2019-04-30T18:27:20.958Z,15.80
2019-04-30T18:29:48.306Z,15.70
2019-04-30T18:32:16.432Z,15.50
2019-04-30T18:34:44.302Z,15.40
2019-04-30T18:37:12.136Z,15.20
2019-04-30T18:39:40.083Z,15.10
2019-04-30T18:42:10.834Z,15.00
2019-04-30T18:44:38.265Z,15.00
2019-04-30T18:47:06.087Z,14.90
2019-04-30T18:49:33.926Z,14.70
2019-04-30T18:52:01.800Z,14.60
2019-04-30T18:54:29.628Z,14.50
2019-04-30T18:56:58.943Z,14.40
2019-04-30T18:59:26.865Z,14.30
2019-04-30T19:01:55.052Z,14.20
2019-04-30T19:04:22.879Z,14.10
2019-04-30T19:06:52.663Z,14.00
2019-04-30T19:09:40.106Z,14.00
2019-04-30T19:12:22.436Z,13.90
2019-04-30T19:15:16.969Z,13.90
2019-04-30T19:18:10.429Z,13.80
2019-04-30T19:20:44.391Z,13.70
2019-04-30T19:23:12.173Z,13.40
2019-04-30T19:25:40.544Z,13.00
2019-04-30T19:28:14.018Z,12.90
2019-04-30T19:30:40.102Z,12.70
2019-04-30T19:33:08.749Z,12.50
2019-04-30T19:35:36.737Z,12.40
2019-04-30T19:38:04.547Z,12.20
2019-04-30T19:40:33.453Z,12.10
2019-04-30T19:43:01.354Z,12.00
2019-04-30T19:45:29.170Z,12.00
2019-04-30T19:47:58.669Z,12.00
2019-04-30T19:50:26.695Z,12.00
2019-04-30T19:52:54.581Z,11.90
2019-04-30T19:55:22.409Z,11.90
2019-04-30T19:57:51.105Z,11.80
2019-04-30T20:00:19.953Z,11.10
2019-04-30T20:02:48.706Z,11.20
2019-04-30T20:05:16.727Z,11.40
2019-04-30T20:07:44.570Z,11.40
2019-04-30T20:10:12.493Z,11.30
2019-04-30T20:12:40.534Z,11.60
2019-04-30T20:15:18.732Z,11.20
2019-04-30T20:17:38.634Z,11.20
2019-04-30T20:20:09.002Z,11.20
2019-04-30T20:22:38.883Z,11.10
2019-04-30T20:25:09.176Z,11.00
2019-04-30T20:27:37.362Z,11.00
2019-04-30T20:30:05.412Z,10.90
2019-04-30T20:32:36.238Z,10.80
2019-04-30T20:35:03.677Z,10.70
2019-04-30T20:37:33.988Z,10.70
2019-04-30T20:40:08.834Z,10.60
2019-04-30T20:42:41.954Z,10.70
2019-04-30T20:45:09.739Z,10.60
2019-04-30T20:47:39.315Z,10.60
2019-04-30T20:50:07.308Z,10.50
2019-04-30T20:52:35.130Z,10.50
2019-04-30T20:55:02.982Z,10.50
2019-04-30T20:57:33.217Z,10.50
2019-04-30T21:00:01.083Z,10.40
2019-04-30T21:02:29.231Z,10.50
2019-04-30T21:04:57.045Z,10.40
2019-04-30T21:07:25.202Z,10.40
2019-04-30T21:09:52.953Z,10.40
2019-04-30T21:12:20.733Z,10.20
2019-04-30T21:14:48.650Z,10.10
2019-04-30T21:17:16.382Z,10.00
2019-04-30T21:19:44.180Z,10.00
2019-04-30T21:22:11.932Z,9.90
2019-04-30T21:24:39.760Z,9.80
2019-04-30T21:27:07.480Z,9.80
2019-04-30T21:29:35.364Z,9.70
2019-04-30T21:32:21.341Z,9.70
2019-04-30T21:35:11.668Z,9.70
2019-04-30T21:37:39.455Z,9.80
2019-04-30T21:40:09.609Z,9.80
2019-04-30T21:42:37.410Z,9.70
2019-04-30T21:45:05.374Z,9.70
2019-04-30T21:47:33.138Z,9.70
2019-04-30T21:50:00.975Z,9.60
2019-04-30T21:52:28.858Z,9.60
2019-04-30T21:54:56.583Z,9.60
2019-04-30T21:57:24.377Z,9.50
2019-04-30T21:59:52.193Z,9.50
2019-04-30T22:02:20.080Z,9.40
2019-04-30T22:04:47.852Z,9.50
2019-04-30T22:07:15.597Z,9.40
2019-04-30T22:09:43.399Z,9.30
2019-04-30T22:12:11.116Z,9.30
2019-04-30T22:14:38.899Z,9.00
2019-04-30T22:17:09.298Z,9.10
2019-04-30T22:19:37.177Z,9.10
2019-04-30T22:22:04.982Z,9.10
2019-04-30T22:24:32.751Z,9.00
2019-04-30T22:27:01.802Z,9.00
2019-04-30T22:29:38.819Z,8.90
2019-04-30T22:31:59.474Z,8.80
2019-04-30T22:34:27.681Z,8.70
2019-04-30T22:36:55.416Z,8.70
2019-04-30T22:39:39.893Z,8.60
2019-04-30T22:42:34.810Z,8.60
2019-04-30T22:45:07.273Z,8.60
2019-04-30T22:47:35.039Z,8.60
2019-04-30T22:50:05.096Z,8.60
2019-04-30T22:52:33.103Z,8.50
2019-04-30T22:55:00.873Z,8.30
2019-04-30T22:57:28.649Z,8.40
2019-04-30T22:59:56.460Z,8.40
2019-04-30T23:02:31.016Z,8.30
2019-04-30T23:04:59.372Z,8.40
2019-04-30T23:07:27.164Z,8.40
2019-04-30T23:09:55.077Z,8.30
2019-04-30T23:12:22.932Z,8.20
2019-04-30T23:14:50.665Z,8.40
2019-04-30T23:17:18.392Z,8.60
2019-04-30T23:19:49.578Z,8.20
2019-04-30T23:22:15.795Z,8.10
2019-04-30T23:24:43.568Z,8.10
2019-04-30T23:27:11.519Z,8.10
2019-04-30T23:29:39.288Z,8.10
2019-04-30T23:32:07.034Z,8.00
2019-04-30T23:34:34.783Z,7.80
2019-04-30T23:37:02.584Z,7.80
2019-04-30T23:39:30.335Z,7.80
2019-04-30T23:41:58.087Z,7.70
2019-04-30T23:44:25.862Z,7.70
2019-04-30T23:46:53.647Z,7.60
2019-04-30T23:49:21.394Z,7.50
2019-04-30T23:52:08.638Z,7.50
2019-04-30T23:54:36.408Z,7.90
2019-04-30T23:57:04.197Z,7.50
2019-04-30T23:59:31.918Z,7.50
